sensor_id;sensor_type;location;lat;lon;timestamp;pressure;altitude;pressure_sealevel;temperature;humidity
56402;BME280;42299;35.160;26.100;2023-01-01T00:01:16;102583.97;;;11.28;100.00
56402;BME280;42299;35.160;26.100;2023-01-01T00:02:38;102583.75;;;11.23;100.00
56402;BME280;42299;35.160;26.100;2023-01-01T00:04:01;102586.34;;;11.22;100.00
56402;BME280;42299;35.160;26.100;2023-01-01T00:05:23;102579.25;;;11.21;100.00
56402;BME280;42299;35.160;26.100;2023-01-01T00:06:45;102581.00;;;11.20;100.00
56402;BME280;42299;35.160;26.100;2023-01-01T00:08:08;102579.19;;;11.19;100.00
56402;BME280;42299;35.160;26.100;2023-01-01T00:09:30;102574.81;;;11.19;100.00
56402;BME280;42299;35.160;26.100;2023-01-01T00:11:10;102571.09;;;11.16;100.00
56402;BME280;42299;35.160;26.100;2023-01-01T00:12:34;102578.16;;;11.15;100.00
56402;BME280;42299;35.160;26.100;2023-01-01T00:13:56;102577.94;;;11.11;100.00
56402;BME280;42299;35.160;26.100;2023-01-01T00:15:19;102575.94;;;11.05;100.00
56402;BME280;42299;35.160;26.100;2023-01-01T00:16:41;102568.59;;;10.98;100.00
56402;BME280;42299;35.160;26.100;2023-01-01T00:18:04;102567.56;;;10.95;100.00
56402;BME280;42299;35.160;26.100;2023-01-01T00:19:26;102564.03;;;10.94;100.00
56402;BME280;42299;35.160;26.100;2023-01-01T00:20:49;102566.75;;;10.96;100.00
56402;BME280;42299;35.160;26.100;2023-01-01T00:22:12;102568.59;;;10.98;100.00
56402;BME280;42299;35.160;26.100;2023-01-01T00:23:35;102559.84;;;10.99;100.00
56402;BME280;42299;35.160;26.100;2023-01-01T00:24:57;102561.72;;;11.02;100.00
56402;BME280;42299;35.160;26.100;2023-01-01T00:26:20;102574.06;;;11.03;100.00
56402;BME280;42299;35.160;26.100;2023-01-01T00:27:43;102560.03;;;11.04;100.00
56402;BME280;42299;35.160;26.100;2023-01-01T00:29:06;102562.63;;;11.02;100.00
56402;BME280;42299;35.160;26.100;2023-01-01T00:30:28;102564.22;;;10.99;100.00
56402;BME280;42299;35.160;26.100;2023-01-01T00:31:51;102565.06;;;10.98;100.00
56402;BME280;42299;35.160;26.100;2023-01-01T00:33:13;102562.41;;;10.98;100.00
56402;BME280;42299;35.160;26.100;2023-01-01T00:34:35;102564.22;;;10.99;100.00
56402;BME280;42299;35.160;26.100;2023-01-01T00:36:05;102566.88;;;10.99;100.00
56402;BME280;42299;35.160;26.100;2023-01-01T00:37:27;102563.19;;;10.95;100.00
56402;BME280;42299;35.160;26.100;2023-01-01T00:38:50;102567.50;;;10.93;100.00
56402;BME280;42299;35.160;26.100;2023-01-01T00:40:13;102571.88;;;10.93;100.00
56402;BME280;42299;35.160;26.100;2023-01-01T00:41:36;102562.97;;;10.91;100.00
56402;BME280;42299;35.160;26.100;2023-01-01T00:43:00;102566.44;;;10.90;100.00
56402;BME280;42299;35.160;26.100;2023-01-01T00:44:22;102565.50;;;10.88;100.00
56402;BME280;42299;35.160;26.100;2023-01-01T00:45:44;102567.25;;;10.87;100.00
56402;BME280;42299;35.160;26.100;2023-01-01T00:47:08;102570.88;;;10.89;100.00
56402;BME280;42299;35.160;26.100;2023-01-01T00:48:29;102563.81;;;10.90;100.00
56402;BME280;42299;35.160;26.100;2023-01-01T00:49:52;102564.88;;;10.93;100.00
56402;BME280;42299;35.160;26.100;2023-01-01T00:51:14;102566.66;;;10.94;100.00
56402;BME280;42299;35.160;26.100;2023-01-01T00:52:37;102562.16;;;10.92;100.00
56402;BME280;42299;35.160;26.100;2023-01-01T00:53:59;102560.22;;;10.88;100.00
56402;BME280;42299;35.160;26.100;2023-01-01T00:55:21;102558.25;;;10.84;100.00
56402;BME280;42299;35.160;26.100;2023-01-01T00:56:44;102560.88;;;10.82;100.00
56402;BME280;42299;35.160;26.100;2023-01-01T00:58:06;102560.72;;;10.79;100.00
56402;BME280;42299;35.160;26.100;2023-01-01T00:59:29;102557.25;;;10.80;100.00
56402;BME280;42299;35.160;26.100;2023-01-01T01:00:52;102556.69;;;10.87;100.00
56402;BME280;42299;35.160;26.100;2023-01-01T01:02:13;102550.81;;;10.94;100.00
56402;BME280;42299;35.160;26.100;2023-01-01T01:03:36;102553.00;;;11.04;100.00
56402;BME280;42299;35.160;26.100;2023-01-01T01:04:59;102554.09;;;11.09;100.00
56402;BME280;42299;35.160;26.100;2023-01-01T01:06:23;102552.69;;;11.17;100.00
56402;BME280;42299;35.160;26.100;2023-01-01T01:07:45;102552.81;;;11.21;100.00
56402;BME280;42299;35.160;26.100;2023-01-01T01:09:08;102555.56;;;11.24;100.00
56402;BME280;42299;35.160;26.100;2023-01-01T01:10:30;102561.00;;;11.27;100.00
56402;BME280;42299;35.160;26.100;2023-01-01T01:11:52;102559.38;;;11.30;100.00
56402;BME280;42299;35.160;26.100;2023-01-01T01:13:16;102558.63;;;11.33;100.00
56402;BME280;42299;35.160;26.100;2023-01-01T01:14:37;102549.84;;;11.34;100.00
56402;BME280;42299;35.160;26.100;2023-01-01T01:16:00;102554.34;;;11.36;100.00
56402;BME280;42299;35.160;26.100;2023-01-01T01:17:22;102548.09;;;11.34;100.00
56402;BME280;42299;35.160;26.100;2023-01-01T01:18:44;102546.16;;;11.30;100.00
56402;BME280;42299;35.160;26.100;2023-01-01T01:20:07;102554.81;;;11.26;100.00
56402;BME280;42299;35.160;26.100;2023-01-01T01:21:32;102551.19;;;11.24;100.00
56402;BME280;42299;35.160;26.100;2023-01-01T01:22:53;102552.91;;;11.22;100.00
56402;BME280;42299;35.160;26.100;2023-01-01T01:24:16;102556.38;;;11.21;100.00
56402;BME280;42299;35.160;26.100;2023-01-01T01:25:39;102545.84;;;11.23;100.00
56402;BME280;42299;35.160;26.100;2023-01-01T01:27:01;102542.50;;;11.27;100.00
56402;BME280;42299;35.160;26.100;2023-01-01T01:28:24;102541.91;;;11.34;100.00
56402;BME280;42299;35.160;26.100;2023-01-01T01:29:47;102551.91;;;11.41;100.00
56402;BME280;42299;35.160;26.100;2023-01-01T01:31:09;102546.06;;;11.49;100.00
56402;BME280;42299;35.160;26.100;2023-01-01T01:32:31;102541.91;;;11.56;100.00
56402;BME280;42299;35.160;26.100;2023-01-01T01:33:53;102542.97;;;11.59;100.00
56402;BME280;42299;35.160;26.100;2023-01-01T01:35:14;102546.53;;;11.60;100.00
56402;BME280;42299;35.160;26.100;2023-01-01T01:36:37;102536.69;;;11.57;100.00
56402;BME280;42299;35.160;26.100;2023-01-01T01:38:00;102538.34;;;11.54;100.00
56402;BME280;42299;35.160;26.100;2023-01-01T01:39:22;102536.34;;;11.48;100.00
56402;BME280;42299;35.160;26.100;2023-01-01T01:40:45;102537.13;;;11.46;100.00
56402;BME280;42299;35.160;26.100;2023-01-01T01:42:14;102522.09;;;11.45;100.00
56402;BME280;42299;35.160;26.100;2023-01-01T01:43:50;102524.72;;;11.45;100.00
56402;BME280;42299;35.160;26.100;2023-01-01T01:45:14;102527.31;;;11.43;100.00
56402;BME280;42299;35.160;26.100;2023-01-01T01:46:40;102524.50;;;11.39;100.00
56402;BME280;42299;35.160;26.100;2023-01-01T01:48:04;102522.69;;;11.38;100.00
56402;BME280;42299;35.160;26.100;2023-01-01T01:49:29;102525.25;;;11.36;100.00
56402;BME280;42299;35.160;26.100;2023-01-01T01:50:53;102523.50;;;11.37;100.00
56402;BME280;42299;35.160;26.100;2023-01-01T01:52:16;102513.91;;;11.39;100.00
56402;BME280;42299;35.160;26.100;2023-01-01T01:53:41;102519.34;;;11.42;100.00
56402;BME280;42299;35.160;26.100;2023-01-01T01:55:07;102515.00;;;11.44;100.00
56402;BME280;42299;35.160;26.100;2023-01-01T01:56:36;102517.84;;;11.48;100.00
56402;BME280;42299;35.160;26.100;2023-01-01T01:58:00;102512.59;;;11.50;100.00
56402;BME280;42299;35.160;26.100;2023-01-01T01:59:25;102512.78;;;11.54;100.00
56402;BME280;42299;35.160;26.100;2023-01-01T02:00:48;102509.41;;;11.58;100.00
56402;BME280;42299;35.160;26.100;2023-01-01T02:02:16;102508.75;;;11.64;100.00
56402;BME280;42299;35.160;26.100;2023-01-01T02:03:44;102507.06;;;11.66;100.00
56402;BME280;42299;35.160;26.100;2023-01-01T02:05:09;102511.56;;;11.69;100.00
56402;BME280;42299;35.160;26.100;2023-01-01T02:06:32;102509.97;;;11.72;100.00
56402;BME280;42299;35.160;26.100;2023-01-01T02:07:56;102508.31;;;11.74;100.00
56402;BME280;42299;35.160;26.100;2023-01-01T02:09:20;102508.34;;;11.76;100.00
56402;BME280;42299;35.160;26.100;2023-01-01T02:10:42;102503.03;;;11.74;100.00
56402;BME280;42299;35.160;26.100;2023-01-01T02:12:05;102506.59;;;11.75;100.00
56402;BME280;42299;35.160;26.100;2023-01-01T02:13:27;102506.47;;;11.73;100.00
56402;BME280;42299;35.160;26.100;2023-01-01T02:14:51;102502.13;;;11.74;100.00
56402;BME280;42299;35.160;26.100;2023-01-01T02:16:19;102496.66;;;11.71;100.00
56402;BME280;42299;35.160;26.100;2023-01-01T02:17:51;102499.31;;;11.71;100.00
56402;BME280;42299;35.160;26.100;2023-01-01T02:19:19;102503.75;;;11.72;100.00
56402;BME280;42299;35.160;26.100;2023-01-01T02:20:48;102502.03;;;11.72;100.00
56402;BME280;42299;35.160;26.100;2023-01-01T02:22:15;102499.47;;;11.74;100.00
56402;BME280;42299;35.160;26.100;2023-01-01T02:24:14;102504.78;;;11.74;100.00
56402;BME280;42299;35.160;26.100;2023-01-01T02:25:51;102504.78;;;11.74;100.00
56402;BME280;42299;35.160;26.100;2023-01-01T02:27:27;102500.41;;;11.76;100.00
56402;BME280;42299;35.160;26.100;2023-01-01T02:28:59;102494.22;;;11.75;100.00
56402;BME280;42299;35.160;26.100;2023-01-01T02:30:24;102501.31;;;11.76;100.00
56402;BME280;42299;35.160;26.100;2023-01-01T02:31:52;102497.06;;;11.80;100.00
56402;BME280;42299;35.160;26.100;2023-01-01T02:33:19;102496.31;;;11.84;100.00
56402;BME280;42299;35.160;26.100;2023-01-01T02:34:46;102499.88;;;11.84;100.00
56402;BME280;42299;35.160;26.100;2023-01-01T02:36:12;102496.47;;;11.87;100.00
56402;BME280;42299;35.160;26.100;2023-01-01T02:37:34;102501.00;;;11.91;100.00
56402;BME280;42299;35.160;26.100;2023-01-01T02:38:58;102493.22;;;11.94;100.00
56402;BME280;42299;35.160;26.100;2023-01-01T02:40:22;102495.84;;;11.94;100.00
56402;BME280;42299;35.160;26.100;2023-01-01T02:41:48;102495.88;;;11.95;100.00
56402;BME280;42299;35.160;26.100;2023-01-01T02:43:12;102489.81;;;11.98;100.00
56402;BME280;42299;35.160;26.100;2023-01-01T02:44:37;102485.50;;;12.00;100.00
56402;BME280;42299;35.160;26.100;2023-01-01T02:46:04;102494.44;;;12.04;100.00
56402;BME280;42299;35.160;26.100;2023-01-01T02:47:27;102491.84;;;12.05;100.00
56402;BME280;42299;35.160;26.100;2023-01-01T02:48:51;102484.00;;;12.08;100.00
56402;BME280;42299;35.160;26.100;2023-01-01T02:50:16;102486.66;;;12.08;100.00
56402;BME280;42299;35.160;26.100;2023-01-01T02:51:46;102492.00;;;12.10;100.00
56402;BME280;42299;35.160;26.100;2023-01-01T02:53:18;102497.38;;;12.11;100.00
56402;BME280;42299;35.160;26.100;2023-01-01T02:54:56;102495.63;;;12.12;100.00
56402;BME280;42299;35.160;26.100;2023-01-01T02:56:29;102504.34;;;12.09;100.00
56402;BME280;42299;35.160;26.100;2023-01-01T02:58:00;102497.81;;;12.00;100.00
56402;BME280;42299;35.160;26.100;2023-01-01T02:59:54;102491.72;;;11.78;100.00
56402;BME280;42299;35.160;26.100;2023-01-01T03:01:44;102502.63;;;11.65;100.00
56402;BME280;42299;35.160;26.100;2023-01-01T03:03:16;102497.16;;;11.61;100.00
56402;BME280;42299;35.160;26.100;2023-01-01T03:04:50;102496.94;;;11.54;100.00
56402;BME280;42299;35.160;26.100;2023-01-01T03:06:20;102498.47;;;11.49;100.00
56402;BME280;42299;35.160;26.100;2023-01-01T03:07:59;102509.09;;;11.51;100.00
56402;BME280;42299;35.160;26.100;2023-01-01T03:09:29;102512.78;;;11.54;100.00
56402;BME280;42299;35.160;26.100;2023-01-01T03:11:02;102519.03;;;11.56;100.00
56402;BME280;42299;35.160;26.100;2023-01-01T03:12:30;102519.00;;;11.55;100.00
56402;BME280;42299;35.160;26.100;2023-01-01T03:14:06;102523.25;;;11.51;100.00
56402;BME280;42299;35.160;26.100;2023-01-01T03:15:37;102520.66;;;11.53;100.00
56402;BME280;42299;35.160;26.100;2023-01-01T03:17:05;102519.81;;;11.54;100.00
56402;BME280;42299;35.160;26.100;2023-01-01T03:18:33;102518.25;;;11.59;100.00
56402;BME280;42299;35.160;26.100;2023-01-01T03:20:01;102521.00;;;11.62;100.00
56402;BME280;42299;35.160;26.100;2023-01-01T03:21:26;102527.28;;;11.64;100.00
56402;BME280;42299;35.160;26.100;2023-01-01T03:22:48;102529.91;;;11.64;100.00
56402;BME280;42299;35.160;26.100;2023-01-01T03:24:18;102525.59;;;11.66;100.00
56402;BME280;42299;35.160;26.100;2023-01-01T03:25:45;102533.63;;;11.69;100.00
56402;BME280;42299;35.160;26.100;2023-01-01T03:27:13;102537.19;;;11.70;100.00
56402;BME280;42299;35.160;26.100;2023-01-01T03:28:42;102528.47;;;11.72;100.00
56402;BME280;42299;35.160;26.100;2023-01-01T03:30:07;102536.53;;;11.74;100.00
56402;BME280;42299;35.160;26.100;2023-01-01T03:31:31;102533.88;;;11.74;100.00
56402;BME280;42299;35.160;26.100;2023-01-01T03:32:57;102532.94;;;11.73;100.00
56402;BME280;42299;35.160;26.100;2023-01-01T03:34:25;102538.22;;;11.73;100.00
56402;BME280;42299;35.160;26.100;2023-01-01T03:35:51;102536.56;;;11.75;100.00
56402;BME280;42299;35.160;26.100;2023-01-01T03:37:23;102536.69;;;11.78;100.00
56402;BME280;42299;35.160;26.100;2023-01-01T03:38:49;102530.50;;;11.78;100.00
56402;BME280;42299;35.160;26.100;2023-01-01T03:40:12;102533.97;;;11.77;100.00
56402;BME280;42299;35.160;26.100;2023-01-01T03:41:37;102530.50;;;11.78;100.00
56402;BME280;42299;35.160;26.100;2023-01-01T03:43:07;102532.22;;;11.77;100.00
56402;BME280;42299;35.160;26.100;2023-01-01T03:44:32;102533.91;;;11.75;100.00
56402;BME280;42299;35.160;26.100;2023-01-01T03:45:56;102537.44;;;11.74;100.00
56402;BME280;42299;35.160;26.100;2023-01-01T03:47:20;102542.81;;;11.77;100.00
56402;BME280;42299;35.160;26.100;2023-01-01T03:48:43;102537.53;;;11.77;100.00
56402;BME280;42299;35.160;26.100;2023-01-01T03:50:16;102532.41;;;11.82;100.00
56402;BME280;42299;35.160;26.100;2023-01-01T03:51:55;102537.75;;;11.83;100.00
56402;BME280;42299;35.160;26.100;2023-01-01T03:53:31;102532.47;;;11.83;100.00
56402;BME280;42299;35.160;26.100;2023-01-01T03:55:03;102529.00;;;11.84;100.00
56402;BME280;42299;35.160;26.100;2023-01-01T03:56:32;102539.63;;;11.86;100.00
56402;BME280;42299;35.160;26.100;2023-01-01T03:58:00;102542.38;;;11.89;100.00
56402;BME280;42299;35.160;26.100;2023-01-01T03:59:29;102549.56;;;11.91;100.00
56402;BME280;42299;35.160;26.100;2023-01-01T04:01:00;102539.81;;;11.90;100.00
56402;BME280;42299;35.160;26.100;2023-01-01T04:02:27;102538.97;;;11.91;100.00
56402;BME280;42299;35.160;26.100;2023-01-01T04:03:52;102545.09;;;11.90;100.00
56402;BME280;42299;35.160;26.100;2023-01-01T04:05:16;102539.81;;;11.90;100.00
56402;BME280;42299;35.160;26.100;2023-01-01T04:06:38;102545.09;;;11.90;100.00
56402;BME280;42299;35.160;26.100;2023-01-01T04:08:02;102547.75;;;11.90;100.00
56402;BME280;42299;35.160;26.100;2023-01-01T04:09:30;102548.59;;;11.89;100.00
56402;BME280;42299;35.160;26.100;2023-01-01T04:10:56;102551.19;;;11.88;100.00
56402;BME280;42299;35.160;26.100;2023-01-01T04:12:20;102553.72;;;11.85;100.00
56402;BME280;42299;35.160;26.100;2023-01-01T04:13:45;102551.00;;;11.83;100.00
56402;BME280;42299;35.160;26.100;2023-01-01T04:15:09;102554.44;;;11.81;100.00
56402;BME280;42299;35.160;26.100;2023-01-01T04:16:32;102554.25;;;11.76;100.00
56402;BME280;42299;35.160;26.100;2023-01-01T04:17:53;102556.75;;;11.73;100.00
56402;BME280;42299;35.160;26.100;2023-01-01T04:19:16;102546.94;;;11.71;100.00
56402;BME280;42299;35.160;26.100;2023-01-01T04:20:37;102558.31;;;11.68;100.00
56402;BME280;42299;35.160;26.100;2023-01-01T04:21:59;102552.97;;;11.67;100.00
56402;BME280;42299;35.160;26.100;2023-01-01T04:23:21;102564.31;;;11.64;100.00
56402;BME280;42299;35.160;26.100;2023-01-01T04:24:43;102551.91;;;11.63;100.00
56402;BME280;42299;35.160;26.100;2023-01-01T04:26:05;102554.56;;;11.63;100.00
56402;BME280;42299;35.160;26.100;2023-01-01T04:27:27;102558.09;;;11.64;100.00
56402;BME280;42299;35.160;26.100;2023-01-01T04:28:48;102549.28;;;11.63;100.00
56402;BME280;42299;35.160;26.100;2023-01-01T04:30:14;102547.59;;;11.65;100.00
56402;BME280;42299;35.160;26.100;2023-01-01T04:31:36;102547.59;;;11.65;100.00
56402;BME280;42299;35.160;26.100;2023-01-01T04:32:57;102554.56;;;11.63;100.00
56402;BME280;42299;35.160;26.100;2023-01-01T04:34:19;102551.88;;;11.62;100.00
56402;BME280;42299;35.160;26.100;2023-01-01T04:35:42;102550.97;;;11.61;100.00
56402;BME280;42299;35.160;26.100;2023-01-01T04:37:03;102558.78;;;11.58;100.00
56402;BME280;42299;35.160;26.100;2023-01-01T04:38:25;102548.91;;;11.54;100.00
56402;BME280;42299;35.160;26.100;2023-01-01T04:39:46;102554.00;;;11.49;100.00
56402;BME280;42299;35.160;26.100;2023-01-01T04:41:09;102553.00;;;11.46;100.00
56402;BME280;42299;35.160;26.100;2023-01-01T04:42:31;102551.94;;;11.42;100.00
56402;BME280;42299;35.160;26.100;2023-01-01T04:43:53;102557.19;;;11.41;100.00
56402;BME280;42299;35.160;26.100;2023-01-01T04:45:16;102552.66;;;11.38;100.00
56402;BME280;42299;35.160;26.100;2023-01-01T04:46:39;102556.03;;;11.34;100.00
56402;BME280;42299;35.160;26.100;2023-01-01T04:48:03;102560.28;;;11.31;100.00
56402;BME280;42299;35.160;26.100;2023-01-01T04:49:25;102557.47;;;11.26;100.00
56402;BME280;42299;35.160;26.100;2023-01-01T04:50:53;102554.63;;;11.22;100.00
56402;BME280;42299;35.160;26.100;2023-01-01T04:52:15;102565.00;;;11.17;100.00
56402;BME280;42299;35.160;26.100;2023-01-01T04:53:37;102560.50;;;11.14;100.00
56402;BME280;42299;35.160;26.100;2023-01-01T04:54:58;102563.97;;;11.13;100.00
56402;BME280;42299;35.160;26.100;2023-01-01T04:56:22;102563.97;;;11.13;100.00
56402;BME280;42299;35.160;26.100;2023-01-01T04:57:44;102574.47;;;11.12;100.00
56402;BME280;42299;35.160;26.100;2023-01-01T04:59:05;102573.56;;;11.11;100.00
56402;BME280;42299;35.160;26.100;2023-01-01T05:00:29;102580.59;;;11.11;100.00
56402;BME280;42299;35.160;26.100;2023-01-01T05:01:51;102576.13;;;11.10;100.00
56402;BME280;42299;35.160;26.100;2023-01-01T05:03:13;102572.56;;;11.08;100.00
56402;BME280;42299;35.160;26.100;2023-01-01T05:04:34;102580.41;;;11.06;100.00
56402;BME280;42299;35.160;26.100;2023-01-01T05:06:00;102575.88;;;11.04;100.00
56402;BME280;42299;35.160;26.100;2023-01-01T05:07:22;102570.56;;;11.02;100.00
56402;BME280;42299;35.160;26.100;2023-01-01T05:08:47;102587.28;;;11.03;100.00
56402;BME280;42299;35.160;26.100;2023-01-01T05:10:10;102573.97;;;11.00;100.00
56402;BME280;42299;35.160;26.100;2023-01-01T05:11:32;102576.53;;;10.98;100.00
56402;BME280;42299;35.160;26.100;2023-01-01T05:12:53;102574.72;;;10.97;100.00
56402;BME280;42299;35.160;26.100;2023-01-01T05:14:16;102580.00;;;10.97;100.00
56402;BME280;42299;35.160;26.100;2023-01-01T05:15:39;102578.19;;;10.96;100.00
56402;BME280;42299;35.160;26.100;2023-01-01T05:17:01;102576.44;;;10.97;100.00
56402;BME280;42299;35.160;26.100;2023-01-01T05:18:23;102585.28;;;10.97;100.00
56402;BME280;42299;35.160;26.100;2023-01-01T05:19:44;102578.25;;;10.98;100.00
56402;BME280;42299;35.160;26.100;2023-01-01T05:21:08;102588.16;;;11.02;100.00
56402;BME280;42299;35.160;26.100;2023-01-01T05:22:30;102581.13;;;11.02;100.00
56402;BME280;42299;35.160;26.100;2023-01-01T05:23:53;102580.25;;;11.03;100.00
56402;BME280;42299;35.160;26.100;2023-01-01T05:25:15;102582.91;;;11.03;100.00
56402;BME280;42299;35.160;26.100;2023-01-01T05:26:39;102580.22;;;11.02;100.00
56402;BME280;42299;35.160;26.100;2023-01-01T05:28:02;102585.44;;;11.00;100.00
56402;BME280;42299;35.160;26.100;2023-01-01T05:29:24;102577.44;;;10.99;100.00
56402;BME280;42299;35.160;26.100;2023-01-01T05:30:48;102581.97;;;11.01;100.00
56402;BME280;42299;35.160;26.100;2023-01-01T05:32:09;102583.78;;;11.02;100.00
56402;BME280;42299;35.160;26.100;2023-01-01T05:33:35;102577.63;;;11.03;100.00
56402;BME280;42299;35.160;26.100;2023-01-01T05:34:57;102580.34;;;11.05;100.00
56402;BME280;42299;35.160;26.100;2023-01-01T05:36:23;102584.03;;;11.08;100.00
56402;BME280;42299;35.160;26.100;2023-01-01T05:37:45;102584.06;;;11.10;100.00
56402;BME280;42299;35.160;26.100;2023-01-01T05:39:08;102586.72;;;11.10;100.00
56402;BME280;42299;35.160;26.100;2023-01-01T05:40:31;102591.06;;;11.08;100.00
56402;BME280;42299;35.160;26.100;2023-01-01T05:41:52;102587.50;;;11.07;100.00
56402;BME280;42299;35.160;26.100;2023-01-01T05:43:15;102588.53;;;11.11;100.00
56402;BME280;42299;35.160;26.100;2023-01-01T05:44:36;102585.94;;;11.12;100.00
56402;BME280;42299;35.160;26.100;2023-01-01T05:46:01;102575.56;;;11.17;100.00
56402;BME280;42299;35.160;26.100;2023-01-01T05:47:23;102583.72;;;11.22;100.00
56402;BME280;42299;35.160;26.100;2023-01-01T05:48:46;102580.41;;;11.27;100.00
56402;BME280;42299;35.160;26.100;2023-01-01T05:50:08;102579.69;;;11.31;100.00
56402;BME280;42299;35.160;26.100;2023-01-01T05:51:30;102571.94;;;11.36;100.00
56402;BME280;42299;35.160;26.100;2023-01-01T05:52:53;102568.53;;;11.38;100.00
56402;BME280;42299;35.160;26.100;2023-01-01T05:54:14;102572.16;;;11.40;100.00
56402;BME280;42299;35.160;26.100;2023-01-01T05:55:36;102571.34;;;11.43;100.00
56402;BME280;42299;35.160;26.100;2023-01-01T05:56:57;102570.53;;;11.44;100.00
56402;BME280;42299;35.160;26.100;2023-01-01T05:58:20;102576.78;;;11.46;100.00
56402;BME280;42299;35.160;26.100;2023-01-01T05:59:41;102574.16;;;11.46;100.00
56402;BME280;42299;35.160;26.100;2023-01-01T06:01:09;102576.13;;;11.51;100.00
56402;BME280;42299;35.160;26.100;2023-01-01T06:02:32;102572.66;;;11.52;100.00
56402;BME280;42299;35.160;26.100;2023-01-01T06:03:55;102574.56;;;11.56;100.00
56402;BME280;42299;35.160;26.100;2023-01-01T06:05:18;102569.41;;;11.59;100.00
56402;BME280;42299;35.160;26.100;2023-01-01T06:06:40;102574.78;;;11.61;100.00
56402;BME280;42299;35.160;26.100;2023-01-01T06:08:02;102569.66;;;11.66;100.00
56402;BME280;42299;35.160;26.100;2023-01-01T06:09:25;102560.22;;;11.72;100.00
56402;BME280;42299;35.160;26.100;2023-01-01T06:10:47;102575.47;;;11.78;100.00
56402;BME280;42299;35.160;26.100;2023-01-01T06:12:10;102569.53;;;11.83;100.00
56402;BME280;42299;35.160;26.100;2023-01-01T06:13:32;102578.44;;;11.85;100.00
56402;BME280;42299;35.160;26.100;2023-01-01T06:14:54;102573.25;;;11.88;100.00
56402;BME280;42299;35.160;26.100;2023-01-01T06:16:17;102575.25;;;11.94;100.00
56402;BME280;42299;35.160;26.100;2023-01-01T06:17:40;102580.72;;;11.98;100.00
56402;BME280;42299;35.160;26.100;2023-01-01T06:19:02;102580.88;;;12.03;100.00
56402;BME280;42299;35.160;26.100;2023-01-01T06:20:25;102583.72;;;12.08;100.00
56402;BME280;42299;35.160;26.100;2023-01-01T06:21:46;102588.28;;;12.12;100.00
56402;BME280;42299;35.160;26.100;2023-01-01T06:23:09;102591.00;;;12.13;100.00
56402;BME280;42299;35.160;26.100;2023-01-01T06:24:32;102595.50;;;12.16;100.00
56402;BME280;42299;35.160;26.100;2023-01-01T06:25:54;102598.34;;;12.20;100.00
56402;BME280;42299;35.160;26.100;2023-01-01T06:27:16;102588.75;;;12.24;100.00
56402;BME280;42299;35.160;26.100;2023-01-01T06:28:39;102591.41;;;12.24;100.00
56402;BME280;42299;35.160;26.100;2023-01-01T06:30:02;102599.41;;;12.25;100.00
56402;BME280;42299;35.160;26.100;2023-01-01T06:31:26;102597.72;;;12.27;100.00
56402;BME280;42299;35.160;26.100;2023-01-01T06:32:50;102600.47;;;12.30;100.00
56402;BME280;42299;35.160;26.100;2023-01-01T06:34:14;102595.25;;;12.32;100.00
56402;BME280;42299;35.160;26.100;2023-01-01T06:35:36;102603.19;;;12.32;100.00
56402;BME280;42299;35.160;26.100;2023-01-01T06:36:58;102602.41;;;12.34;100.00
56402;BME280;42299;35.160;26.100;2023-01-01T06:38:24;102595.41;;;12.36;100.00
56402;BME280;42299;35.160;26.100;2023-01-01T06:39:46;102599.94;;;12.39;100.00
56402;BME280;42299;35.160;26.100;2023-01-01T06:41:11;102599.09;;;12.40;100.00
56402;BME280;42299;35.160;26.100;2023-01-01T06:42:34;102599.97;;;12.41;100.00
56402;BME280;42299;35.160;26.100;2023-01-01T06:43:57;102605.28;;;12.41;100.00
56402;BME280;42299;35.160;26.100;2023-01-01T06:45:21;102594.56;;;12.37;100.00
56402;BME280;42299;35.160;26.100;2023-01-01T06:46:45;102598.13;;;12.38;100.00
56402;BME280;42299;35.160;26.100;2023-01-01T06:48:07;102599.94;;;12.39;100.00
56402;BME280;42299;35.160;26.100;2023-01-01T06:49:28;102592.03;;;12.41;100.00
56402;BME280;42299;35.160;26.100;2023-01-01T06:50:51;102586.84;;;12.44;100.00
56402;BME280;42299;35.160;26.100;2023-01-01T06:52:12;102586.09;;;12.46;100.00
56402;BME280;42299;35.160;26.100;2023-01-01T06:53:35;102587.84;;;12.47;100.00
56402;BME280;42299;35.160;26.100;2023-01-01T06:54:57;102586.25;;;12.51;100.00
56402;BME280;42299;35.160;26.100;2023-01-01T06:56:20;102590.84;;;12.56;100.00
56402;BME280;42299;35.160;26.100;2023-01-01T06:57:43;102591.03;;;12.61;100.00
56402;BME280;42299;35.160;26.100;2023-01-01T06:59:04;102592.97;;;12.65;100.00
56402;BME280;42299;35.160;26.100;2023-01-01T07:00:27;102594.84;;;12.69;100.00
56402;BME280;42299;35.160;26.100;2023-01-01T07:01:50;102595.00;;;12.72;100.00
56402;BME280;42299;35.160;26.100;2023-01-01T07:03:13;102592.28;;;12.70;100.00
56402;BME280;42299;35.160;26.100;2023-01-01T07:04:35;102600.22;;;12.70;100.00
56402;BME280;42299;35.160;26.100;2023-01-01T07:05:57;102599.38;;;12.71;100.00
56402;BME280;42299;35.160;26.100;2023-01-01T07:07:18;102601.19;;;12.72;100.00
56402;BME280;42299;35.160;26.100;2023-01-01T07:08:41;102595.97;;;12.75;100.00
56402;BME280;42299;35.160;26.100;2023-01-01T07:10:04;102592.66;;;12.81;100.00
56402;BME280;42299;35.160;26.100;2023-01-01T07:11:27;102611.47;;;12.89;100.00